createdAt,value
2022-08-07T00:00:20.995Z,20
2022-08-07T00:01:20.996Z,14
2022-08-07T00:02:20.996Z,16
2022-08-07T00:03:20.996Z,16
2022-08-07T00:04:20.997Z,16
2022-08-07T00:05:20.997Z,14
2022-08-07T00:06:20.975Z,15
2022-08-07T00:07:20.975Z,16
2022-08-07T00:08:20.976Z,17
2022-08-07T00:09:20.976Z,17
2022-08-07T00:10:20.976Z,17
2022-08-07T00:11:20.977Z,16
2022-08-07T00:12:20.999Z,19
2022-08-07T00:13:21.000Z,20
2022-08-07T00:14:21.000Z,22
2022-08-07T00:15:21.000Z,27
2022-08-07T00:16:21.001Z,25
2022-08-07T00:17:21.001Z,26
2022-08-07T00:18:21.002Z,18
2022-08-07T00:19:21.002Z,17
2022-08-07T00:20:21.003Z,17
2022-08-07T00:21:20.980Z,17
2022-08-07T00:22:20.981Z,18
2022-08-07T00:23:20.981Z,19
2022-08-07T00:24:20.982Z,17
2022-08-07T00:25:20.982Z,18
2022-08-07T00:26:20.982Z,18
2022-08-07T00:27:21.005Z,21
2022-08-07T00:28:21.005Z,19
2022-08-07T00:29:21.006Z,18
2022-08-07T00:30:21.006Z,18
2022-08-07T00:31:21.006Z,20
2022-08-07T00:32:21.007Z,13
2022-08-07T00:33:21.007Z,15
2022-08-07T00:34:21.008Z,16
2022-08-07T00:35:21.008Z,16
2022-08-07T00:36:20.986Z,14
2022-08-07T00:37:20.986Z,15
2022-08-07T00:38:20.987Z,13
2022-08-07T00:39:20.987Z,13
2022-08-07T00:40:20.987Z,14
2022-08-07T00:41:20.988Z,14
2022-08-07T00:42:21.010Z,17
2022-08-07T00:43:21.011Z,18
2022-08-07T00:44:21.011Z,14
2022-08-07T00:45:21.012Z,17
2022-08-07T00:46:21.012Z,17
2022-08-07T00:47:21.012Z,21
2022-08-07T00:48:21.029Z,21
2022-08-07T00:49:21.013Z,16
2022-08-07T00:50:21.014Z,18
2022-08-07T00:51:21.014Z,18
2022-08-07T00:52:20.992Z,18
2022-08-07T00:53:20.992Z,13
2022-08-07T00:54:20.993Z,15
2022-08-07T00:55:20.993Z,17
2022-08-07T00:56:20.993Z,18
2022-08-07T00:57:20.994Z,15
2022-08-07T00:58:21.016Z,14
2022-08-07T00:59:21.017Z,13
2022-08-07T01:00:21.017Z,17
2022-08-07T01:01:21.018Z,13
2022-08-07T01:02:21.018Z,15
2022-08-07T01:03:21.018Z,11
2022-08-07T01:04:21.019Z,13
2022-08-07T01:05:21.019Z,11
2022-08-07T01:06:21.019Z,11
2022-08-07T01:07:20.997Z,13
2022-08-07T01:08:20.998Z,14
2022-08-07T01:09:20.998Z,15
2022-08-07T01:10:20.998Z,20
2022-08-07T01:12:20.999Z,14
2022-08-07T01:13:21.022Z,12
2022-08-07T01:14:21.022Z,14
2022-08-07T01:15:21.023Z,17
2022-08-07T01:16:21.023Z,14
2022-08-07T01:17:21.023Z,13
2022-08-07T01:18:21.024Z,14
2022-08-07T01:19:21.024Z,17
2022-08-07T01:20:21.025Z,17
2022-08-07T01:21:21.025Z,16
2022-08-07T01:22:21.003Z,19
2022-08-07T01:23:21.003Z,18
2022-08-07T01:24:21.004Z,16
2022-08-07T01:25:21.004Z,15
2022-08-07T01:26:21.004Z,15
2022-08-07T01:27:21.005Z,17
2022-08-07T01:28:21.027Z,15
2022-08-07T01:29:21.028Z,16
2022-08-07T01:30:21.028Z,16
2022-08-07T01:31:21.028Z,15
2022-08-07T01:32:21.029Z,14
2022-08-07T01:33:21.029Z,13
2022-08-07T01:34:21.030Z,13
2022-08-07T01:35:21.030Z,13
2022-08-07T01:36:21.030Z,17
2022-08-07T01:37:21.048Z,11
2022-08-07T01:38:21.009Z,12
2022-08-07T01:39:21.009Z,10
2022-08-07T01:40:21.032Z,9
2022-08-07T01:41:21.010Z,10
2022-08-07T01:42:21.010Z,10
2022-08-07T01:43:21.044Z,8
2022-08-07T01:44:21.033Z,8
2022-08-07T01:45:21.034Z,9
2022-08-07T01:46:21.050Z,16
2022-08-07T01:47:21.034Z,18
2022-08-07T01:48:21.035Z,15
2022-08-07T01:49:21.036Z,16
2022-08-07T01:50:21.035Z,13
2022-08-07T01:51:21.036Z,14
2022-08-07T01:52:21.036Z,15
2022-08-07T01:53:21.014Z,19
2022-08-07T01:54:21.014Z,16
2022-08-07T01:55:21.015Z,20
2022-08-07T01:56:21.015Z,17
2022-08-07T01:57:21.015Z,19
2022-08-07T01:58:21.016Z,18
2022-08-07T01:59:21.039Z,17
2022-08-07T02:00:21.039Z,24
2022-08-07T02:01:21.039Z,19
2022-08-07T02:02:21.040Z,17
2022-08-07T02:03:21.040Z,17
2022-08-07T02:04:21.040Z,17
2022-08-07T02:05:21.041Z,17
2022-08-07T02:06:21.041Z,17
2022-08-07T02:07:21.042Z,16
2022-08-07T02:08:21.019Z,16
2022-08-07T02:09:21.020Z,15
2022-08-07T02:10:21.020Z,11
2022-08-07T02:11:21.020Z,11
2022-08-07T02:12:21.021Z,11
2022-08-07T02:13:21.021Z,12
2022-08-07T02:14:21.044Z,12
2022-08-07T02:15:21.044Z,11
2022-08-07T02:16:21.044Z,12
2022-08-07T02:17:21.045Z,10
2022-08-07T02:18:21.045Z,11
2022-08-07T02:19:21.046Z,11
2022-08-07T02:20:21.046Z,11
2022-08-07T02:21:21.046Z,11
2022-08-07T02:22:21.047Z,10
2022-08-07T02:23:21.025Z,11
2022-08-07T02:25:21.025Z,12
2022-08-07T02:26:21.026Z,13
2022-08-07T02:27:21.026Z,13
2022-08-07T02:28:21.026Z,12
2022-08-07T02:29:21.049Z,12
2022-08-07T02:30:21.050Z,12
2022-08-07T02:31:21.050Z,11
2022-08-07T02:32:21.050Z,12
2022-08-07T02:33:21.051Z,11
2022-08-07T02:34:21.051Z,10
2022-08-07T02:35:21.051Z,9
2022-08-07T02:36:21.052Z,11
2022-08-07T02:37:21.052Z,12
2022-08-07T02:38:21.030Z,10
2022-08-07T02:39:21.030Z,11
2022-08-07T02:40:21.031Z,11
2022-08-07T02:41:21.031Z,11
2022-08-07T02:42:21.031Z,12
2022-08-07T02:43:21.032Z,13
2022-08-07T02:44:21.054Z,14
2022-08-07T02:45:21.055Z,12
2022-08-07T02:46:21.055Z,11
2022-08-07T02:47:21.055Z,10
2022-08-07T02:48:21.056Z,11
2022-08-07T02:49:21.056Z,12
2022-08-07T02:50:21.081Z,11
2022-08-07T02:51:21.057Z,11
2022-08-07T02:52:21.057Z,11
2022-08-07T02:53:21.059Z,11
2022-08-07T02:54:21.036Z,11
2022-08-07T02:55:21.036Z,12
2022-08-07T02:56:21.036Z,9
2022-08-07T02:57:21.037Z,9
2022-08-07T02:58:21.037Z,9
2022-08-07T02:59:21.037Z,11
2022-08-07T03:00:21.060Z,11
2022-08-07T03:01:21.060Z,11
2022-08-07T03:02:21.061Z,12
2022-08-07T03:03:21.061Z,12
2022-08-07T03:04:21.061Z,13
2022-08-07T03:05:21.062Z,13
2022-08-07T03:06:21.062Z,13
2022-08-07T03:07:21.063Z,14
2022-08-07T03:08:21.063Z,16
2022-08-07T03:09:21.041Z,14
2022-08-07T03:10:21.041Z,16
2022-08-07T03:11:21.041Z,14
2022-08-07T03:12:21.042Z,15
2022-08-07T03:13:21.042Z,15
2022-08-07T03:14:21.042Z,16
2022-08-07T03:15:21.065Z,16
2022-08-07T03:16:21.066Z,15
2022-08-07T03:17:21.066Z,16
2022-08-07T03:18:21.066Z,15
2022-08-07T03:19:21.067Z,16
2022-08-07T03:20:21.067Z,15
2022-08-07T03:21:21.067Z,16
2022-08-07T03:22:21.068Z,17
2022-08-07T03:23:21.069Z,12
2022-08-07T03:24:21.046Z,12
2022-08-07T03:25:21.046Z,13
2022-08-07T03:26:21.047Z,12
2022-08-07T03:27:21.047Z,12
2022-08-07T03:28:21.047Z,12
2022-08-07T03:29:21.048Z,12
2022-08-07T03:30:21.070Z,13
2022-08-07T03:31:21.071Z,11
2022-08-07T03:32:21.071Z,16
2022-08-07T03:33:21.071Z,16
2022-08-07T03:34:21.072Z,14
2022-08-07T03:35:21.072Z,14
2022-08-07T03:36:21.073Z,14
2022-08-07T03:37:21.073Z,15
2022-08-07T03:38:21.051Z,13
2022-08-07T03:39:21.051Z,12
2022-08-07T03:40:21.051Z,11
2022-08-07T03:41:21.052Z,13
2022-08-07T03:42:21.052Z,12
2022-08-07T03:43:21.052Z,11
2022-08-07T03:44:21.075Z,11
2022-08-07T03:45:21.075Z,13
2022-08-07T03:46:21.076Z,11
2022-08-07T03:47:21.076Z,12
2022-08-07T03:48:21.077Z,11
2022-08-07T03:49:21.077Z,11
2022-08-07T03:50:21.102Z,12
2022-08-07T03:51:21.078Z,10
2022-08-07T03:52:21.078Z,11
2022-08-07T03:53:21.079Z,11
2022-08-07T03:54:21.056Z,11
2022-08-07T03:55:21.057Z,12
2022-08-07T03:56:21.057Z,11
2022-08-07T03:57:21.057Z,11
2022-08-07T03:58:21.058Z,10
2022-08-07T03:59:21.058Z,11
2022-08-07T04:00:21.081Z,12
2022-08-07T04:01:21.081Z,12
2022-08-07T04:02:21.081Z,11
2022-08-07T04:03:21.082Z,11
2022-08-07T04:04:21.082Z,11
2022-08-07T04:05:21.083Z,13
2022-08-07T04:06:21.083Z,11
2022-08-07T04:07:21.083Z,12
2022-08-07T04:08:21.084Z,11
2022-08-07T04:09:21.062Z,9
2022-08-07T04:10:21.062Z,9
2022-08-07T04:11:21.062Z,10
2022-08-07T04:12:21.063Z,10
2022-08-07T04:13:21.063Z,12
2022-08-07T04:14:21.063Z,11
2022-08-07T04:15:21.086Z,10
2022-08-07T04:16:21.087Z,12
2022-08-07T04:17:21.087Z,11
2022-08-07T04:18:21.087Z,15
2022-08-07T04:19:21.087Z,13
2022-08-07T04:20:21.088Z,13
2022-08-07T04:21:21.089Z,15
2022-08-07T04:22:21.089Z,12
2022-08-07T04:23:21.089Z,12
2022-08-07T04:24:21.067Z,15
2022-08-07T04:25:21.067Z,15
2022-08-07T04:26:21.068Z,16
2022-08-07T04:27:21.068Z,15
2022-08-07T04:28:21.068Z,15
2022-08-07T04:29:21.069Z,15
2022-08-07T04:30:21.091Z,17
2022-08-07T04:31:21.092Z,17
2022-08-07T04:32:21.092Z,15
2022-08-07T04:33:21.093Z,16
2022-08-07T04:34:21.093Z,14
2022-08-07T04:35:21.093Z,14
2022-08-07T04:36:21.094Z,13
2022-08-07T04:37:21.094Z,15
2022-08-07T04:38:21.094Z,12
2022-08-07T04:39:21.072Z,15
2022-08-07T04:40:21.073Z,14
2022-08-07T04:41:21.073Z,15
2022-08-07T04:42:21.073Z,13
2022-08-07T04:43:21.074Z,14
2022-08-07T04:44:21.074Z,15
2022-08-07T04:45:21.097Z,16
2022-08-07T04:46:21.097Z,16
2022-08-07T04:47:21.097Z,16
2022-08-07T04:48:21.098Z,17
2022-08-07T04:49:21.098Z,16
2022-08-07T04:50:21.099Z,16
2022-08-07T04:51:21.123Z,18
2022-08-07T04:52:21.100Z,17
2022-08-07T04:53:21.100Z,14
2022-08-07T04:54:21.101Z,15
2022-08-07T04:55:21.078Z,15
2022-08-07T04:56:21.078Z,14
2022-08-07T04:57:21.079Z,15
2022-08-07T04:58:21.079Z,13
2022-08-07T04:59:21.080Z,16
2022-08-07T05:00:21.080Z,17
2022-08-07T05:01:21.103Z,17
2022-08-07T05:02:21.103Z,17
2022-08-07T05:03:21.103Z,17
2022-08-07T05:04:21.104Z,17
2022-08-07T05:05:21.104Z,17
2022-08-07T05:06:21.104Z,15
2022-08-07T05:07:21.105Z,16
2022-08-07T05:08:21.105Z,18
2022-08-07T05:09:21.106Z,15
2022-08-07T05:10:21.084Z,16
2022-08-07T05:11:21.084Z,14
2022-08-07T05:12:21.084Z,16
2022-08-07T05:13:21.085Z,16
2022-08-07T05:14:21.085Z,13
2022-08-07T05:15:21.086Z,16
2022-08-07T05:16:21.108Z,14
2022-08-07T05:17:21.109Z,15
2022-08-07T05:18:21.109Z,12
2022-08-07T05:19:21.109Z,15
2022-08-07T05:20:21.110Z,14
2022-08-07T05:21:21.110Z,15
2022-08-07T05:22:21.110Z,12
2022-08-07T05:23:21.111Z,13
2022-08-07T05:24:21.111Z,14
2022-08-07T05:25:21.089Z,12
2022-08-07T05:26:21.089Z,13
2022-08-07T05:27:21.090Z,11
2022-08-07T05:28:21.090Z,11
2022-08-07T05:29:21.091Z,13
2022-08-07T05:30:21.091Z,17
2022-08-07T05:31:21.114Z,15
2022-08-07T05:32:21.114Z,16
2022-08-07T05:33:21.114Z,18
2022-08-07T05:34:21.115Z,15
2022-08-07T05:35:21.115Z,17
2022-08-07T05:36:21.115Z,13
2022-08-07T05:37:21.116Z,14
2022-08-07T05:38:21.116Z,14
2022-08-07T05:39:21.117Z,14
2022-08-07T05:40:21.095Z,14
2022-08-07T05:41:21.095Z,14
2022-08-07T05:42:21.095Z,12
2022-08-07T05:43:21.096Z,12
2022-08-07T05:44:21.096Z,11
2022-08-07T05:45:21.096Z,11
2022-08-07T05:46:21.119Z,13
2022-08-07T05:47:21.120Z,9
2022-08-07T05:48:21.120Z,9
2022-08-07T05:49:21.120Z,10
2022-08-07T05:50:21.121Z,13
2022-08-07T05:51:21.121Z,15
2022-08-07T05:52:21.122Z,14
2022-08-07T05:53:21.122Z,14
2022-08-07T05:54:21.122Z,13
2022-08-07T05:55:21.188Z,13
2022-08-07T05:56:21.101Z,13
2022-08-07T05:57:21.101Z,12
2022-08-07T05:58:21.123Z,9
2022-08-07T05:59:21.102Z,9
2022-08-07T06:00:21.102Z,10
2022-08-07T06:01:21.134Z,12
2022-08-07T06:02:21.125Z,13
2022-08-07T06:03:21.126Z,14
2022-08-07T06:04:21.142Z,12
2022-08-07T06:05:21.126Z,12
2022-08-07T06:06:21.127Z,15
2022-08-07T06:07:21.128Z,15
2022-08-07T06:08:21.128Z,15
2022-08-07T06:09:21.128Z,13
2022-08-07T06:10:21.129Z,16
2022-08-07T06:11:21.106Z,16
2022-08-07T06:12:21.107Z,16
2022-08-07T06:13:21.107Z,15
2022-08-07T06:14:21.108Z,16
2022-08-07T06:15:21.108Z,18
2022-08-07T06:16:21.108Z,16
2022-08-07T06:17:21.131Z,14
2022-08-07T06:18:21.131Z,14
2022-08-07T06:19:21.132Z,14
2022-08-07T06:20:21.132Z,16
2022-08-07T06:21:21.133Z,13
2022-08-07T06:22:21.133Z,20
2022-08-07T06:23:21.134Z,19
2022-08-07T06:24:21.134Z,18
2022-08-07T06:25:21.134Z,13
2022-08-07T06:26:21.112Z,13
2022-08-07T06:27:21.113Z,13
2022-08-07T06:28:21.113Z,13
2022-08-07T06:29:21.113Z,12
2022-08-07T06:30:21.114Z,12
2022-08-07T06:31:21.114Z,12
2022-08-07T06:32:21.137Z,15
2022-08-07T06:33:21.137Z,15
2022-08-07T06:34:21.138Z,12
2022-08-07T06:35:21.138Z,13
2022-08-07T06:36:21.139Z,12
2022-08-07T06:37:21.139Z,16
2022-08-07T06:38:21.140Z,12
2022-08-07T06:39:21.140Z,11
2022-08-07T06:40:21.140Z,12
2022-08-07T06:41:21.118Z,12
2022-08-07T06:42:21.119Z,16
2022-08-07T06:43:21.119Z,13
2022-08-07T06:44:21.120Z,16
2022-08-07T06:45:21.120Z,16
2022-08-07T06:46:21.120Z,14
2022-08-07T06:47:21.143Z,16
2022-08-07T06:48:21.143Z,14
2022-08-07T06:49:21.144Z,17
2022-08-07T06:50:21.144Z,17
2022-08-07T06:51:21.145Z,16
2022-08-07T06:52:21.145Z,16
2022-08-07T06:53:21.146Z,18
2022-08-07T06:54:21.146Z,13
2022-08-07T06:55:21.147Z,12
2022-08-07T06:56:21.164Z,13
2022-08-07T06:57:21.125Z,16
2022-08-07T06:59:21.148Z,14
2022-08-07T07:00:21.126Z,14
2022-08-07T07:01:21.127Z,13
2022-08-07T07:02:21.159Z,12
2022-08-07T07:03:21.150Z,14
2022-08-07T07:04:21.150Z,15
2022-08-07T07:05:21.167Z,12
2022-08-07T07:06:21.151Z,12
2022-08-07T07:07:21.151Z,13
2022-08-07T07:08:21.152Z,13
2022-08-07T07:09:21.152Z,14
2022-08-07T07:10:21.153Z,19
2022-08-07T07:11:21.153Z,16
2022-08-07T07:12:21.131Z,17
2022-08-07T07:13:21.132Z,16
2022-08-07T07:14:21.132Z,13
2022-08-07T07:15:21.132Z,12
2022-08-07T07:16:21.133Z,14
2022-08-07T07:17:21.133Z,17
2022-08-07T07:18:21.156Z,14
2022-08-07T07:19:21.157Z,15
2022-08-07T07:20:21.157Z,16
2022-08-07T07:21:21.157Z,19
2022-08-07T07:22:21.158Z,16
2022-08-07T07:23:21.158Z,16
2022-08-07T07:24:21.159Z,17
2022-08-07T07:25:21.159Z,14
2022-08-07T07:26:21.160Z,19
2022-08-07T07:27:21.138Z,18
2022-08-07T07:28:21.138Z,17
2022-08-07T07:29:21.139Z,19
2022-08-07T07:30:21.139Z,19
2022-08-07T07:31:21.139Z,14
2022-08-07T07:32:21.140Z,19
2022-08-07T07:33:21.163Z,18
2022-08-07T07:34:21.163Z,20
2022-08-07T07:35:21.163Z,15
2022-08-07T07:36:21.164Z,17
2022-08-07T07:37:21.164Z,18
2022-08-07T07:38:21.165Z,20
2022-08-07T07:40:21.166Z,18
2022-08-07T07:41:21.166Z,15
2022-08-07T07:42:21.144Z,19
2022-08-07T07:43:21.145Z,24
2022-08-07T07:44:21.145Z,21
2022-08-07T07:45:21.146Z,15
2022-08-07T07:46:21.146Z,19
2022-08-07T07:47:21.147Z,17
2022-08-07T07:48:21.169Z,17
2022-08-07T07:49:21.170Z,14
2022-08-07T07:50:21.170Z,16
2022-08-07T07:51:21.171Z,17
2022-08-07T07:52:21.171Z,18
2022-08-07T07:53:21.172Z,19
2022-08-07T07:54:21.172Z,20
2022-08-07T07:55:21.173Z,23
2022-08-07T07:56:21.173Z,22
2022-08-07T07:57:21.191Z,20
2022-08-07T07:58:21.151Z,14
2022-08-07T07:59:21.152Z,16
2022-08-07T08:00:21.175Z,19
2022-08-07T08:01:21.153Z,17
2022-08-07T08:02:21.153Z,18
2022-08-07T08:03:21.188Z,14
2022-08-07T08:04:21.177Z,13
2022-08-07T08:05:21.177Z,13
2022-08-07T08:06:21.194Z,15
2022-08-07T08:07:21.178Z,12
2022-08-07T08:08:21.179Z,14
2022-08-07T08:09:21.179Z,13
2022-08-07T08:10:21.179Z,15
2022-08-07T08:11:21.180Z,12
2022-08-07T08:12:21.181Z,13
2022-08-07T08:13:21.158Z,12
2022-08-07T08:14:21.159Z,16
2022-08-07T08:15:21.159Z,19
2022-08-07T08:16:21.160Z,17
2022-08-07T08:17:21.160Z,17
2022-08-07T08:18:21.161Z,16
2022-08-07T08:19:21.184Z,17
2022-08-07T08:20:21.184Z,18
2022-08-07T08:21:21.185Z,16
2022-08-07T08:22:21.185Z,21
2022-08-07T08:23:21.186Z,20
2022-08-07T08:24:21.186Z,18
2022-08-07T08:25:21.187Z,20
2022-08-07T08:26:21.187Z,24
2022-08-07T08:27:21.188Z,23
2022-08-07T08:28:21.166Z,18
2022-08-07T08:29:21.166Z,13
2022-08-07T08:30:21.167Z,16
2022-08-07T08:31:21.167Z,15
2022-08-07T08:32:21.168Z,12
2022-08-07T08:33:21.168Z,13
2022-08-07T08:34:21.191Z,12
2022-08-07T08:35:21.192Z,19
2022-08-07T08:36:21.192Z,14
2022-08-07T08:37:21.193Z,15
2022-08-07T08:38:21.193Z,15
2022-08-07T08:39:21.194Z,20
2022-08-07T08:40:21.195Z,21
2022-08-07T08:41:21.195Z,20
2022-08-07T08:42:21.196Z,20
2022-08-07T08:43:21.174Z,23
2022-08-07T08:44:21.174Z,27
2022-08-07T08:45:21.175Z,24
2022-08-07T08:46:21.175Z,19
2022-08-07T08:47:21.176Z,21
2022-08-07T08:48:21.176Z,21
2022-08-07T08:49:21.199Z,18
2022-08-07T08:50:21.200Z,20
2022-08-07T08:51:21.200Z,23
2022-08-07T08:52:21.201Z,25
2022-08-07T08:53:21.202Z,22
2022-08-07T08:54:21.202Z,28
2022-08-07T08:55:21.203Z,33
2022-08-07T08:56:21.203Z,27
2022-08-07T08:57:21.204Z,26
2022-08-07T08:58:21.182Z,20
2022-08-07T08:59:21.182Z,19
2022-08-07T09:00:21.183Z,18
2022-08-07T09:01:21.184Z,24
2022-08-07T09:02:21.184Z,23
2022-08-07T09:03:21.185Z,22
2022-08-07T09:04:21.208Z,26
2022-08-07T09:05:21.208Z,28
2022-08-07T09:06:21.209Z,27
2022-08-07T09:07:21.209Z,23
2022-08-07T09:08:21.210Z,17
2022-08-07T09:09:21.210Z,19
2022-08-07T09:10:21.275Z,19
2022-08-07T09:11:21.211Z,17
2022-08-07T09:12:21.212Z,19
2022-08-07T09:13:21.213Z,19
2022-08-07T09:14:21.191Z,19
2022-08-07T09:15:21.191Z,22
2022-08-07T09:16:21.192Z,22
2022-08-07T09:17:21.192Z,21
2022-08-07T09:18:21.193Z,24
2022-08-07T09:19:21.193Z,24
2022-08-07T09:20:21.216Z,24
2022-08-07T09:21:21.217Z,22
2022-08-07T09:22:21.217Z,20
2022-08-07T09:23:21.218Z,21
2022-08-07T09:24:21.218Z,21
2022-08-07T09:25:21.219Z,18
2022-08-07T09:26:21.220Z,23
2022-08-07T09:27:21.220Z,23
2022-08-07T09:28:21.221Z,16
2022-08-07T09:29:21.199Z,15
2022-08-07T09:30:21.199Z,23
2022-08-07T09:31:21.200Z,17
2022-08-07T09:33:21.201Z,21
2022-08-07T09:34:21.201Z,27
2022-08-07T09:35:21.224Z,31
2022-08-07T09:36:21.225Z,18
2022-08-07T09:37:21.225Z,23
2022-08-07T09:38:21.226Z,25
2022-08-07T09:39:21.226Z,22
2022-08-07T09:40:21.227Z,21
2022-08-07T09:41:21.228Z,29
2022-08-07T09:42:21.228Z,24
2022-08-07T09:43:21.229Z,23
2022-08-07T09:44:21.207Z,22
2022-08-07T09:45:21.207Z,23
2022-08-07T09:46:21.208Z,21
2022-08-07T09:47:21.209Z,29
2022-08-07T09:48:21.209Z,28
2022-08-07T09:49:21.210Z,26
2022-08-07T09:50:21.233Z,28
2022-08-07T09:51:21.233Z,30
2022-08-07T09:52:21.234Z,30
2022-08-07T09:53:21.234Z,21
2022-08-07T09:54:21.235Z,33
2022-08-07T09:55:21.235Z,39
2022-08-07T09:56:21.236Z,31
2022-08-07T09:57:21.237Z,27
2022-08-07T09:58:21.237Z,31
2022-08-07T09:59:21.215Z,32
2022-08-07T10:00:21.216Z,35
2022-08-07T10:01:21.216Z,32
2022-08-07T10:02:21.217Z,36
2022-08-07T10:03:21.217Z,36
2022-08-07T10:04:21.218Z,33
2022-08-07T10:05:21.241Z,36
2022-08-07T10:06:21.242Z,36
2022-08-07T10:07:21.242Z,37
2022-08-07T10:08:21.243Z,30
2022-08-07T10:09:21.243Z,35
2022-08-07T10:10:21.244Z,36
2022-08-07T10:11:21.309Z,40
2022-08-07T10:12:21.245Z,40
2022-08-07T10:13:21.246Z,40
2022-08-07T10:14:21.247Z,47
2022-08-07T10:15:21.224Z,50
2022-08-07T10:16:21.225Z,44
2022-08-07T10:17:21.225Z,37
2022-08-07T10:18:21.226Z,39
2022-08-07T10:19:21.226Z,45
2022-08-07T10:20:21.227Z,48
2022-08-07T10:21:21.250Z,46
2022-08-07T10:22:21.251Z,46
2022-08-07T10:23:21.251Z,49
2022-08-07T10:24:21.252Z,48
2022-08-07T10:25:21.252Z,50
2022-08-07T10:26:21.253Z,52
2022-08-07T10:27:21.253Z,50
2022-08-07T10:28:21.254Z,52
2022-08-07T10:29:21.255Z,60
2022-08-07T10:30:21.233Z,71
2022-08-07T10:31:21.233Z,56
2022-08-07T10:32:21.603Z,50
2022-08-07T10:33:21.234Z,49
2022-08-07T10:34:21.235Z,51
2022-08-07T10:35:21.236Z,50
2022-08-07T10:36:21.258Z,41
2022-08-07T10:37:21.259Z,46
2022-08-07T10:38:21.268Z,43
2022-08-07T10:39:21.260Z,49
2022-08-07T10:40:21.261Z,49
2022-08-07T10:41:21.261Z,43
2022-08-07T10:42:21.262Z,42
2022-08-07T10:43:21.263Z,43
2022-08-07T10:44:21.263Z,48
2022-08-07T10:45:21.241Z,50
2022-08-07T10:46:21.242Z,48
2022-08-07T10:47:21.242Z,41
2022-08-07T10:48:21.243Z,46
2022-08-07T10:49:21.243Z,48
2022-08-07T10:50:21.244Z,44
2022-08-07T10:51:21.267Z,44
2022-08-07T10:52:21.268Z,45
2022-08-07T10:53:21.268Z,50
2022-08-07T10:54:21.269Z,57
2022-08-07T10:55:21.269Z,57
2022-08-07T10:56:21.270Z,58
2022-08-07T10:57:21.271Z,54
2022-08-07T10:58:21.271Z,52
2022-08-07T10:59:21.272Z,49
2022-08-07T11:00:21.250Z,64
2022-08-07T11:01:21.250Z,56
2022-08-07T11:02:21.251Z,58
2022-08-07T11:03:21.251Z,54
2022-08-07T11:04:21.252Z,57
2022-08-07T11:05:21.253Z,57
2022-08-07T11:06:21.276Z,66
2022-08-07T11:07:21.276Z,67
2022-08-07T11:08:21.276Z,66
2022-08-07T11:09:21.277Z,63
2022-08-07T11:10:21.278Z,69
2022-08-07T11:11:21.278Z,56
2022-08-07T11:12:21.279Z,63
2022-08-07T11:13:21.280Z,62
2022-08-07T11:14:21.280Z,61
2022-08-07T11:15:21.306Z,80
2022-08-07T11:16:21.259Z,80
2022-08-07T11:17:21.259Z,85
2022-08-07T11:18:21.260Z,67
2022-08-07T11:19:21.261Z,67
2022-08-07T11:20:21.261Z,71
2022-08-07T11:21:21.284Z,62
2022-08-07T11:22:21.285Z,67
2022-08-07T11:23:21.285Z,80
2022-08-07T11:24:21.326Z,79
2022-08-07T11:25:21.286Z,82
2022-08-07T11:26:21.287Z,83
2022-08-07T11:27:21.288Z,82
2022-08-07T11:28:21.289Z,68
2022-08-07T11:29:21.289Z,70
2022-08-07T11:30:21.289Z,58
2022-08-07T11:31:21.268Z,66
2022-08-07T11:32:27.623Z,61
2022-08-07T11:33:21.269Z,52
2022-08-07T11:34:21.269Z,51
2022-08-07T11:35:21.270Z,52
2022-08-07T11:36:21.293Z,51
2022-08-07T11:37:21.293Z,62
2022-08-07T11:38:21.294Z,58
2022-08-07T11:39:21.334Z,58
2022-08-07T11:40:21.295Z,58
2022-08-07T11:41:21.296Z,64
2022-08-07T11:42:21.296Z,65
2022-08-07T11:43:21.297Z,62
2022-08-07T11:44:21.297Z,69
2022-08-07T11:45:21.298Z,67
2022-08-07T11:46:21.276Z,63
2022-08-07T11:47:21.277Z,67
2022-08-07T11:48:21.277Z,67
2022-08-07T11:49:21.278Z,65
2022-08-07T11:50:21.278Z,67
2022-08-07T11:51:21.279Z,73
2022-08-07T11:52:21.302Z,75
2022-08-07T11:54:21.303Z,83
2022-08-07T11:55:21.304Z,84
2022-08-07T11:56:21.304Z,73
2022-08-07T11:57:21.305Z,59
2022-08-07T11:58:21.306Z,62
2022-08-07T11:59:21.306Z,62
2022-08-07T12:00:21.307Z,67
2022-08-07T12:01:21.285Z,69
2022-08-07T12:02:21.285Z,62
2022-08-07T12:03:21.286Z,63
2022-08-07T12:04:21.287Z,64
2022-08-07T12:05:21.287Z,52
2022-08-07T12:06:21.288Z,46
2022-08-07T12:07:21.311Z,57
2022-08-07T12:08:21.311Z,56
2022-08-07T12:09:21.312Z,48
2022-08-07T12:10:21.313Z,48
2022-08-07T12:11:21.313Z,47
2022-08-07T12:12:21.314Z,50
2022-08-07T12:13:21.315Z,54
2022-08-07T12:14:21.315Z,59
2022-08-07T12:15:21.316Z,63
2022-08-07T12:16:21.294Z,69
2022-08-07T12:17:21.294Z,65
2022-08-07T12:18:21.295Z,68
2022-08-07T12:19:21.295Z,64
2022-08-07T12:20:21.296Z,63
2022-08-07T12:21:21.297Z,64
2022-08-07T12:22:21.320Z,66
2022-08-07T12:23:21.320Z,57
2022-08-07T12:24:21.321Z,53
2022-08-07T12:25:21.322Z,38
2022-08-07T12:26:21.322Z,47
2022-08-07T12:27:21.323Z,46
2022-08-07T12:28:21.364Z,46
2022-08-07T12:29:21.324Z,42
2022-08-07T12:30:21.325Z,50
2022-08-07T12:31:21.326Z,38
2022-08-07T12:32:26.683Z,45
2022-08-07T12:33:21.304Z,47
2022-08-07T12:34:21.304Z,42
2022-08-07T12:35:21.305Z,53
2022-08-07T12:36:21.306Z,69
2022-08-07T12:37:21.329Z,56
2022-08-07T12:38:21.329Z,64
2022-08-07T12:39:21.330Z,61
2022-08-07T12:40:21.330Z,66
2022-08-07T12:41:21.331Z,67
2022-08-07T12:42:21.332Z,58
2022-08-07T12:43:21.349Z,59
2022-08-07T12:44:21.333Z,65
2022-08-07T12:45:21.334Z,69
2022-08-07T12:46:21.335Z,72
2022-08-07T12:47:21.312Z,63
2022-08-07T12:48:21.313Z,61
2022-08-07T12:49:21.313Z,55
2022-08-07T12:50:21.314Z,55
2022-08-07T12:51:21.315Z,55
2022-08-07T12:52:21.315Z,51
2022-08-07T12:53:21.338Z,50
2022-08-07T12:54:21.339Z,53
2022-08-07T12:55:21.339Z,56
2022-08-07T12:56:21.340Z,67
2022-08-07T12:57:21.340Z,63
2022-08-07T12:58:21.341Z,63
2022-08-07T12:59:21.342Z,56
2022-08-07T13:00:21.342Z,72
2022-08-07T13:01:21.343Z,72
2022-08-07T13:02:21.321Z,73
2022-08-07T13:03:21.322Z,71
2022-08-07T13:04:21.322Z,73
2022-08-07T13:05:21.323Z,58
2022-08-07T13:06:21.323Z,50
2022-08-07T13:07:21.324Z,52
2022-08-07T13:08:21.347Z,54
2022-08-07T13:09:21.347Z,57
2022-08-07T13:10:21.348Z,59
2022-08-07T13:11:21.349Z,56
2022-08-07T13:12:21.349Z,64
2022-08-07T13:13:21.350Z,60
2022-08-07T13:14:21.351Z,64
2022-08-07T13:15:21.351Z,70
2022-08-07T13:16:21.352Z,71
2022-08-07T13:17:21.330Z,63
2022-08-07T13:18:21.330Z,52
2022-08-07T13:19:21.331Z,59
2022-08-07T13:20:21.332Z,75
2022-08-07T13:21:21.332Z,75
2022-08-07T13:22:21.333Z,71
2022-08-07T13:23:21.356Z,63
2022-08-07T13:24:21.356Z,69
2022-08-07T13:25:21.357Z,57
2022-08-07T13:26:21.358Z,55
2022-08-07T13:27:21.358Z,55
2022-08-07T13:28:21.359Z,49
2022-08-07T13:29:21.424Z,46
2022-08-07T13:30:21.360Z,56
2022-08-07T13:31:21.361Z,54
2022-08-07T13:32:21.361Z,51
2022-08-07T13:33:21.339Z,54
2022-08-07T13:34:21.340Z,46
2022-08-07T13:35:21.340Z,50
2022-08-07T13:36:21.341Z,59
2022-08-07T13:37:21.341Z,59
2022-08-07T13:38:21.365Z,55
2022-08-07T13:39:21.365Z,61
2022-08-07T13:40:21.365Z,52
2022-08-07T13:41:21.430Z,48
2022-08-07T13:42:21.367Z,53
2022-08-07T13:43:21.367Z,70
2022-08-07T13:44:21.368Z,85
2022-08-07T13:45:21.369Z,87
2022-08-07T13:46:21.369Z,69
2022-08-07T13:47:21.347Z,73
2022-08-07T13:48:21.348Z,65
2022-08-07T13:49:21.348Z,67
2022-08-07T13:50:21.349Z,60
2022-08-07T13:51:21.350Z,63
2022-08-07T13:52:21.350Z,55
2022-08-07T13:53:21.373Z,68
2022-08-07T13:54:21.374Z,68
2022-08-07T13:55:21.374Z,66
2022-08-07T13:56:21.375Z,75
2022-08-07T13:57:21.375Z,78
2022-08-07T13:58:21.376Z,71
2022-08-07T13:59:21.441Z,73
2022-08-07T14:00:21.377Z,67
2022-08-07T14:01:21.378Z,58
2022-08-07T14:02:21.379Z,67
2022-08-07T14:03:21.357Z,61
2022-08-07T14:04:21.357Z,70
2022-08-07T14:05:21.358Z,62
2022-08-07T14:06:21.358Z,60
2022-08-07T14:07:21.359Z,56
2022-08-07T14:08:21.359Z,52
2022-08-07T14:09:21.382Z,45
2022-08-07T14:10:21.383Z,41
2022-08-07T14:11:21.384Z,57
2022-08-07T14:12:21.384Z,57
2022-08-07T14:13:21.385Z,59
2022-08-07T14:14:21.385Z,56
2022-08-07T14:15:21.386Z,65
2022-08-07T14:16:21.387Z,68
2022-08-07T14:17:21.387Z,64
2022-08-07T14:18:21.365Z,61
2022-08-07T14:19:21.366Z,58
2022-08-07T14:20:21.366Z,58
2022-08-07T14:21:21.367Z,60
2022-08-07T14:22:21.368Z,70